Time;durP1;ratioP1;P1;durP2;ratioP2;P2;SDS_P1;SDS_P2;PMS_P1;PMS_P2;Temp;Humidity;BMP_temperature;BMP_pressure;BME280_temperature;BME280_humidity;BME280_pressure;Samples;Min_cycle;Max_cycle;Signal;HPM_P1;HPM_P2
2023/12/23 00:00:11;;;;;;;3.20;2.13;;;;;;;5.89;100.00;147530.00;6184247;23;20169;-56
2023/12/23 00:02:39;;;;;;;2.50;2.37;;;;;;;5.90;100.00;147533.75;6183757;23;20661;-57
2023/12/23 00:05:07;;;;;;;4.60;2.30;;;;;;;5.93;100.00;147540.06;6184265;23;20163;-57
2023/12/23 00:07:35;;;;;;;2.63;2.53;;;;;;;5.93;100.00;147541.34;6184194;23;20213;-57
2023/12/23 00:10:03;;;;;;;2.20;2.10;;;;;;;5.83;100.00;147516.09;6183718;23;20159;-57
2023/12/23 00:12:30;;;;;;;2.20;2.10;;;;;;;5.94;100.00;147542.59;6183661;23;20154;-58
2023/12/23 00:14:57;;;;;;;2.43;2.23;;;;;;;5.94;100.00;147542.59;6183633;23;20216;-57
2023/12/23 00:17:24;;;;;;;1.87;1.77;;;;;;;5.96;100.00;147548.88;6184144;23;20589;-58
2023/12/23 00:19:52;;;;;;;2.63;2.10;;;;;;;5.83;100.00;147514.81;6183574;23;20162;-57
2023/12/23 00:22:19;;;;;;;2.20;2.10;;;;;;;6.00;100.00;147556.41;6183608;23;20158;-56
2023/12/23 00:24:47;;;;;;;2.00;1.90;;;;;;;5.98;100.00;147552.66;6183809;23;20158;-57
2023/12/23 00:27:14;;;;;;;2.00;1.90;;;;;;;5.85;100.00;147519.88;6184062;23;20353;-58
2023/12/23 00:29:41;;;;;;;2.50;2.27;;;;;;;5.98;100.00;147553.88;6184020;23;20162;-58
2023/12/23 00:32:08;;;;;;;1.90;1.80;;;;;;;6.01;100.00;147558.94;6184025;23;20158;-57
2023/12/23 00:34:35;;;;;;;2.10;2.00;;;;;;;6.08;100.00;147576.56;6183720;23;20154;-57
2023/12/23 00:37:04;;;;;;;2.20;2.10;;;;;;;6.07;100.00;147574.09;6184099;23;20483;-57
2023/12/23 00:39:31;;;;;;;5.80;2.03;;;;;;;6.13;100.00;147589.16;6184006;23;20541;-57
2023/12/23 00:41:58;;;;;;;1.83;1.73;;;;;;;6.15;100.00;147595.50;6183946;23;20493;-57
2023/12/23 00:44:25;;;;;;;2.00;1.90;;;;;;;6.17;100.00;147599.25;6183826;23;20178;-58
2023/12/23 00:46:52;;;;;;;1.70;1.60;;;;;;;6.10;100.00;147582.88;6183433;23;20162;-57
2023/12/23 00:49:19;;;;;;;1.97;1.87;;;;;;;6.05;100.00;147569.03;6183554;23;20196;-57
2023/12/23 00:51:46;;;;;;;1.80;1.70;;;;;;;6.00;100.00;147556.41;6183737;23;20545;-57
2023/12/23 00:54:17;;;;;;;1.90;1.80;;;;;;;5.93;100.00;147541.34;6183608;23;20519;-57
2023/12/23 00:56:44;;;;;;;2.10;2.00;;;;;;;6.02;100.00;147561.47;6183556;23;20162;-57
2023/12/23 00:59:11;;;;;;;2.00;1.90;;;;;;;6.00;100.00;147556.41;6184013;23;20162;-57
2023/12/23 01:01:38;;;;;;;3.27;1.80;;;;;;;5.80;100.00;147508.53;6183676;23;20158;-58
2023/12/23 01:04:05;;;;;;;2.33;1.77;;;;;;;5.74;100.00;147493.41;6183924;23;20514;-58
2023/12/23 01:06:32;;;;;;;3.63;2.13;;;;;;;5.72;100.00;147488.41;6183862;23;20162;-63
2023/12/23 01:08:59;;;;;;;2.23;2.13;;;;;;;5.62;100.00;147463.22;6183835;23;20606;-56
2023/12/23 01:11:28;;;;;;;2.10;2.00;;;;;;;5.71;100.00;147485.88;6183370;23;20163;-59
2023/12/23 01:13:55;;;;;;;2.47;2.30;;;;;;;5.70;100.00;147483.34;6183933;23;20301;-57
2023/12/23 01:16:22;;;;;;;1.93;1.83;;;;;;;5.75;100.00;147495.94;6183602;23;20163;-57
2023/12/23 01:18:49;;;;;;;1.73;1.63;;;;;;;5.72;100.00;147487.13;6183962;23;20159;-58
2023/12/23 01:21:20;;;;;;;2.50;1.97;;;;;;;5.80;100.00;147508.53;6183799;23;20197;-58
2023/12/23 01:23:47;;;;;;;1.80;1.70;;;;;;;5.85;100.00;147521.13;6183557;23;20521;-57
2023/12/23 01:26:14;;;;;;;2.23;2.13;;;;;;;5.80;100.00;147507.28;6183719;23;20254;-58
2023/12/23 01:28:43;;;;;;;2.50;2.30;;;;;;;5.78;100.00;147503.47;6183396;23;20249;-58
2023/12/23 01:31:10;;;;;;;2.23;2.13;;;;;;;5.67;100.00;147475.81;6183775;23;20220;-57
2023/12/23 01:33:37;;;;;;;1.67;1.57;;;;;;;5.80;100.00;147507.28;6184014;23;20209;-59
2023/12/23 01:36:05;;;;;;;4.20;2.50;;;;;;;5.80;100.00;147507.28;6185087;23;20221;-57
2023/12/23 01:38:33;;;;;;;3.67;2.03;;;;;;;5.66;100.00;147473.28;6185527;23;20190;-62
2023/12/23 01:40:59;;;;;;;2.00;1.90;;;;;;;5.57;100.00;147449.34;6185033;23;20154;-57
2023/12/23 01:43:26;;;;;;;4.07;1.93;;;;;;;5.63;100.00;147465.75;6185146;23;20216;-57
2023/12/23 01:45:58;;;;;;;2.60;1.80;;;;;;;5.68;100.00;147477.06;6185455;23;20162;-58
2023/12/23 01:48:27;;;;;;;3.20;2.20;;;;;;;5.43;100.00;147415.41;6185051;23;20162;-57
2023/12/23 01:50:57;;;;;;;3.73;1.97;;;;;;;5.44;100.00;147417.88;6185268;23;20155;-56
2023/12/23 01:53:25;;;;;;;4.43;2.30;;;;;;;5.44;100.00;147417.88;6185017;23;20542;-58
2023/12/23 01:55:53;;;;;;;2.70;2.50;;;;;;;5.25;100.00;147371.34;6184875;23;20162;-57
2023/12/23 01:58:21;;;;;;;3.53;2.13;;;;;;;4.94;100.00;147294.56;6185082;23;20158;-58
2023/12/23 02:00:48;;;;;;;3.47;2.20;;;;;;;5.29;100.00;147380.13;6184804;23;20166;-57
2023/12/23 02:03:16;;;;;;;2.40;2.20;;;;;;;5.27;100.00;147375.09;6184804;23;20182;-57
2023/12/23 02:05:46;;;;;;;2.17;2.07;;;;;;;5.15;100.00;147344.88;6185014;23;20158;-57
2023/12/23 02:08:14;;;;;;;3.73;2.60;;;;;;;5.15;100.00;147344.88;6185272;23;20620;-58
2023/12/23 02:10:41;;;;;;;2.50;2.40;;;;;;;5.18;100.00;147353.69;6185413;23;20483;-57
2023/12/23 02:13:17;;;;;;;3.83;2.30;;;;;;;5.16;100.00;147348.69;6185264;23;20159;-57
2023/12/23 02:15:47;;;;;;;5.87;2.50;;;;;;;5.04;100.00;147319.75;6185148;23;20162;-57
2023/12/23 02:18:16;;;;;;;2.97;2.30;;;;;;;5.10;100.00;147332.28;6185255;23;20158;-57
2023/12/23 02:20:43;;;;;;;3.80;2.40;;;;;;;5.22;100.00;147362.53;6184681;23;20158;-57
2023/12/23 02:23:13;;;;;;;3.07;2.80;;;;;;;5.19;100.00;147354.94;6185077;23;20220;-58
2023/12/23 02:25:40;;;;;;;4.90;2.70;;;;;;;5.04;100.00;147318.50;6184785;23;20164;-57
2023/12/23 02:28:10;;;;;;;4.80;2.43;;;;;;;5.19;100.00;147354.94;6185110;23;20549;-57
2023/12/23 02:30:40;;;;;;;2.80;2.60;;;;;;;5.13;100.00;147341.16;6184719;23;20201;-58
2023/12/23 02:33:08;;;;;;;2.73;2.53;;;;;;;5.23;100.00;147365.03;6184647;23;20230;-57
2023/12/23 02:35:35;;;;;;;3.33;3.13;;;;;;;5.23;100.00;147365.03;6184694;23;20161;-57
2023/12/23 02:38:02;;;;;;;3.70;3.47;;;;;;;5.13;100.00;147341.16;6184715;23;20166;-57
2023/12/23 02:40:31;;;;;;;3.27;2.63;;;;;;;5.11;100.00;147334.81;6184649;23;20162;-57
2023/12/23 02:42:58;;;;;;;5.30;3.30;;;;;;;4.99;100.00;147307.16;6184814;23;20232;-58
2023/12/23 02:45:25;;;;;;;4.13;3.70;;;;;;;5.08;100.00;147328.56;6183991;23;20221;-57
2023/12/23 02:47:52;;;;;;;3.30;3.07;;;;;;;5.12;100.00;147337.34;6184426;23;20162;-59
2023/12/23 02:50:19;;;;;;;6.23;3.73;;;;;;;5.16;100.00;147347.41;6184576;23;20237;-58
2023/12/23 02:52:46;;;;;;;3.27;3.07;;;;;;;5.20;100.00;147357.47;6184180;23;20285;-58
2023/12/23 02:55:15;;;;;;;5.50;3.93;;;;;;;4.99;100.00;147305.91;6184360;23;20158;-57
2023/12/23 02:57:43;;;;;;;4.13;3.43;;;;;;;4.98;100.00;147304.63;6184448;23;20241;-58
2023/12/23 03:00:12;;;;;;;3.90;3.70;;;;;;;5.06;100.00;147323.50;6184776;23;20668;-57
2023/12/23 03:02:39;;;;;;;4.93;4.03;;;;;;;5.05;100.00;147322.22;6184727;23;20170;-57
2023/12/23 03:05:07;;;;;;;4.07;3.87;;;;;;;5.09;100.00;147331.09;6184207;23;20258;-57
2023/12/23 03:07:34;;;;;;;6.37;3.80;;;;;;;5.03;100.00;147315.97;6184290;23;20169;-57
2023/12/23 03:10:01;;;;;;;4.47;4.07;;;;;;;4.96;100.00;147299.63;6184286;23;20162;-57
2023/12/23 03:12:29;;;;;;;6.63;3.53;;;;;;;4.96;100.00;147299.63;6184265;23;20162;-57
2023/12/23 03:14:58;;;;;;;3.43;3.10;;;;;;;4.99;100.00;147307.16;6184592;23;20155;-57
2023/12/23 03:17:25;;;;;;;3.87;3.57;;;;;;;5.00;100.00;147309.69;6184228;23;20286;-57
2023/12/23 03:19:55;;;;;;;3.17;2.97;;;;;;;4.84;100.00;147269.41;6184582;23;20602;-57
2023/12/23 03:22:22;;;;;;;2.80;2.60;;;;;;;5.14;100.00;147342.34;6184324;23;20163;-56
2023/12/23 03:24:49;;;;;;;5.63;3.00;;;;;;;5.21;100.00;147361.28;6184459;23;20659;-57
2023/12/23 03:27:18;;;;;;;4.27;2.97;;;;;;;5.13;100.00;147341.16;6184511;23;20232;-57
2023/12/23 03:29:45;;;;;;;3.77;2.10;;;;;;;5.19;100.00;147354.94;6183962;23;20166;-58
2023/12/23 03:32:14;;;;;;;1.83;1.83;;;;;;;5.14;100.00;147342.34;6184505;23;20578;-57
2023/12/23 03:34:41;;;;;;;3.30;1.83;;;;;;;5.36;100.00;147397.75;6184077;23;20158;-57
2023/12/23 03:37:09;;;;;;;1.77;1.67;;;;;;;5.45;100.00;147420.41;6184360;23;20220;-57
2023/12/23 03:39:36;;;;;;;1.90;1.70;;;;;;;5.55;100.00;147445.59;6184256;23;20165;-57
2023/12/23 03:42:04;;;;;;;2.40;1.93;;;;;;;5.69;100.00;147479.56;6184830;23;20673;-57
2023/12/23 03:44:31;;;;;;;4.57;1.63;;;;;;;5.87;100.00;147524.94;6183817;23;20179;-57
2023/12/23 03:46:58;;;;;;;2.03;1.93;;;;;;;5.61;100.00;147459.41;6183864;23;20233;-56
2023/12/23 03:49:26;;;;;;;1.93;1.83;;;;;;;6.04;100.00;147566.50;6184087;23;20197;-56
2023/12/23 03:51:56;;;;;;;2.87;2.10;;;;;;;6.11;100.00;147585.38;6184013;23;20257;-57
2023/12/23 03:54:23;;;;;;;1.60;1.50;;;;;;;6.32;100.00;147637.06;6183666;23;20202;-58
2023/12/23 03:56:50;;;;;;;1.90;1.60;;;;;;;6.39;100.00;147654.66;6183576;23;20237;-57
2023/12/23 03:59:17;;;;;;;2.03;1.60;;;;;;;6.47;100.00;147674.81;6183828;23;20162;-57
2023/12/23 04:01:44;;;;;;;1.50;1.40;;;;;;;6.55;100.00;147693.72;6184160;23;20216;-57
2023/12/23 04:04:11;;;;;;;2.07;1.97;;;;;;;6.60;100.00;147707.59;6184152;23;20641;-56
2023/12/23 04:06:40;;;;;;;1.80;1.70;;;;;;;6.66;100.00;147722.66;6184171;23;20216;-57
2023/12/23 04:09:09;;;;;;;2.17;2.07;;;;;;;6.72;100.00;147737.81;6184162;23;20526;-57
2023/12/23 04:11:36;;;;;;;5.03;1.60;;;;;;;6.74;100.00;147742.88;6183803;23;20254;-58
2023/12/23 04:14:03;;;;;;;8.23;1.67;;;;;;;6.72;100.00;147736.56;6184198;23;20606;-58
2023/12/23 04:16:30;;;;;;;1.80;1.70;;;;;;;6.61;100.00;147708.84;6183849;23;20169;-61
2023/12/23 04:18:57;;;;;;;1.83;1.73;;;;;;;6.70;100.00;147732.81;6183822;23;20609;-58
2023/12/23 04:21:24;;;;;;;1.83;1.73;;;;;;;6.59;100.00;147705.06;6184250;23;20212;-57
2023/12/23 04:23:53;;;;;;;1.80;1.70;;;;;;;6.60;100.00;147707.59;6183633;23;20182;-58
2023/12/23 04:26:20;;;;;;;1.90;1.80;;;;;;;6.62;100.00;147712.59;6184137;23;20663;-59
2023/12/23 04:28:47;;;;;;;2.00;1.90;;;;;;;6.56;100.00;147697.50;6183636;23;20189;-58
2023/12/23 04:31:14;;;;;;;2.07;1.97;;;;;;;6.64;100.00;147716.41;6184097;23;20158;-57
2023/12/23 04:33:41;;;;;;;2.00;1.90;;;;;;;6.73;100.00;147740.34;6183839;23;20216;-58
2023/12/23 04:36:09;;;;;;;2.63;1.80;;;;;;;6.78;100.00;147751.69;6183609;23;20158;-57
2023/12/23 04:38:36;;;;;;;1.67;1.57;;;;;;;6.77;100.00;147750.44;6184049;23;20170;-57
2023/12/23 04:41:03;;;;;;;1.97;1.77;;;;;;;6.82;100.00;147763.03;6183953;23;20166;-57
2023/12/23 04:43:31;;;;;;;2.00;1.90;;;;;;;6.88;100.00;147778.13;6183595;23;20185;-58
2023/12/23 04:45:58;;;;;;;3.33;2.03;;;;;;;6.92;100.00;147785.72;6183337;23;20261;-60
2023/12/23 04:48:26;;;;;;;2.30;2.20;;;;;;;7.00;100.00;147807.09;6183603;23;20158;-58
2023/12/23 04:50:53;;;;;;;4.40;2.23;;;;;;;7.01;100.00;147808.38;6183288;23;20162;-59
2023/12/23 04:53:22;;;;;;;5.40;2.23;;;;;;;7.14;100.00;147841.16;6183611;23;20201;-57
2023/12/23 04:55:49;;;;;;;2.20;2.10;;;;;;;7.16;100.00;147847.47;6183803;23;20467;-57
2023/12/23 04:58:18;;;;;;;2.30;2.10;;;;;;;7.14;100.00;147841.16;6183530;23;20166;-58
2023/12/23 05:00:45;;;;;;;1.93;1.83;;;;;;;7.20;100.00;147857.56;6183672;23;20158;-57
2023/12/23 05:03:12;;;;;;;1.80;1.70;;;;;;;7.21;100.00;147860.03;6183909;23;20228;-56
2023/12/23 05:05:41;;;;;;;2.53;2.10;;;;;;;7.05;100.00;147818.44;6183301;23;20182;-58
2023/12/23 05:08:08;;;;;;;2.30;2.20;;;;;;;7.24;100.00;147866.38;6183686;23;20162;-57
2023/12/23 05:10:35;;;;;;;2.27;1.97;;;;;;;7.13;100.00;147839.88;6185360;23;20217;-58
2023/12/23 05:13:03;;;;;;;2.53;2.33;;;;;;;7.28;100.00;147876.44;6185356;23;20162;-57
2023/12/23 05:15:31;;;;;;;2.93;2.40;;;;;;;7.31;100.00;147884.00;6185216;23;20158;-58
2023/12/23 05:17:58;;;;;;;2.47;2.37;;;;;;;7.40;100.00;147905.44;6185312;23;20217;-57
2023/12/23 05:20:25;;;;;;;2.97;2.60;;;;;;;7.41;100.00;147907.97;6185323;23;20162;-59
2023/12/23 05:22:52;;;;;;;2.13;2.00;;;;;;;7.40;100.00;147906.72;6185690;23;20594;-57
2023/12/23 05:25:19;;;;;;;1.80;1.70;;;;;;;7.48;100.00;147926.88;6185229;23;20182;-57
2023/12/23 05:27:46;;;;;;;1.33;1.33;;;;;;;7.46;100.00;147921.84;6185191;23;20220;-57
2023/12/23 05:30:14;;;;;;;1.10;1.10;;;;;;;7.48;100.00;147925.59;6185275;23;20162;-58
2023/12/23 05:32:43;;;;;;;1.20;1.20;;;;;;;7.49;100.00;147928.13;6185149;23;20158;-57
2023/12/23 05:35:10;;;;;;;1.17;1.13;;;;;;;7.34;100.00;147891.59;6185578;23;20185;-58
2023/12/23 05:37:37;;;;;;;2.17;2.00;;;;;;;7.26;100.00;147872.66;6185486;23;20220;-57
2023/12/23 05:40:05;;;;;;;3.00;2.80;;;;;;;7.03;100.00;147814.69;6185115;23;20193;-62
2023/12/23 05:42:32;;;;;;;3.37;3.27;;;;;;;7.39;100.00;147904.19;6185503;23;20549;-56
2023/12/23 05:44:59;;;;;;;2.63;2.53;;;;;;;7.49;100.00;147928.13;6184834;23;20229;-57
2023/12/23 05:47:27;;;;;;;2.60;2.50;;;;;;;7.50;100.00;147931.94;6185109;23;20172;-57
2023/12/23 05:49:55;;;;;;;3.73;3.53;;;;;;;7.48;100.00;147926.88;6185105;23;20155;-57
2023/12/23 05:52:22;;;;;;;4.33;3.60;;;;;;;7.50;100.00;147930.69;6185159;23;20240;-58
2023/12/23 05:54:50;;;;;;;9.17;5.47;;;;;;;7.40;100.00;147906.72;6185331;23;20162;-57
2023/12/23 05:57:17;;;;;;;6.77;6.47;;;;;;;7.32;100.00;147886.53;6184991;23;20254;-58
2023/12/23 05:59:44;;;;;;;8.67;7.80;;;;;;;7.27;100.00;147873.91;6185339;23;20497;-58
2023/12/23 06:02:11;;;;;;;8.03;7.60;;;;;;;7.19;100.00;147855.03;6184844;23;20162;-58
2023/12/23 06:04:38;;;;;;;9.93;9.00;;;;;;;7.12;100.00;147836.13;6184849;23;20178;-58
2023/12/23 06:07:06;;;;;;;9.53;8.57;;;;;;;7.15;100.00;147843.69;6185274;23;20162;-57
2023/12/23 06:09:33;;;;;;;7.83;7.43;;;;;;;6.91;100.00;147783.19;6184955;23;20163;-57
2023/12/23 06:12:00;;;;;;;8.47;7.70;;;;;;;6.83;100.00;147765.50;6185638;23;20217;-58
2023/12/23 06:14:27;;;;;;;6.90;6.57;;;;;;;6.57;100.00;147700.03;6184872;23;20158;-57
2023/12/23 06:16:54;;;;;;;5.57;5.27;;;;;;;6.59;100.00;147705.06;6185138;23;20162;-58
2023/12/23 06:19:21;;;;;;;5.70;5.27;;;;;;;6.77;100.00;147749.16;6184801;23;20162;-56
2023/12/23 06:21:48;;;;;;;5.03;4.73;;;;;;;6.97;100.00;147799.56;6184583;23;20617;-58
2023/12/23 06:24:17;;;;;;;5.27;5.00;;;;;;;7.15;100.00;147843.69;6184710;23;20162;-59
2023/12/23 06:26:44;;;;;;;6.47;6.17;;;;;;;7.31;100.00;147885.28;6184612;23;20158;-57
2023/12/23 06:29:11;;;;;;;7.20;6.43;;;;;;;7.50;100.00;147931.94;6185200;23;20221;-57
2023/12/23 06:31:39;;;;;;;5.37;5.00;;;;;;;7.49;100.00;147929.41;6184706;23;20193;-60
2023/12/23 06:34:06;;;;;;;5.20;4.97;;;;;;;7.66;100.00;147972.28;6184600;23;20170;-57
2023/12/23 06:36:33;;;;;;;5.73;5.43;;;;;;;7.68;100.00;147977.31;6185035;23;20154;-57
2023/12/23 06:39:00;;;;;;;5.87;5.53;;;;;;;7.69;100.00;147979.84;6184997;23;20466;-58
2023/12/23 06:41:28;;;;;;;5.30;5.00;;;;;;;7.50;100.00;147931.94;6185029;23;20162;-57
2023/12/23 06:43:55;;;;;;;5.03;4.73;;;;;;;7.52;100.00;147935.69;6184331;23;20163;-57
2023/12/23 06:46:23;;;;;;;5.77;5.47;;;;;;;7.58;100.00;147952.13;6184534;23;20190;-57
2023/12/23 06:48:52;;;;;;;5.23;4.93;;;;;;;7.64;100.00;147967.22;6184470;23;20158;-58
2023/12/23 06:51:19;;;;;;;4.93;4.53;;;;;;;7.57;100.00;147949.56;6184801;23;20166;-57
2023/12/23 06:53:48;;;;;;;4.53;4.13;;;;;;;7.39;100.00;147904.19;6184344;23;20201;-58
2023/12/23 06:56:15;;;;;;;4.30;3.90;;;;;;;7.61;100.00;147959.66;6184734;23;20158;-57
2023/12/23 06:58:44;;;;;;;4.10;3.90;;;;;;;7.67;100.00;147973.56;6184361;23;20162;-57
2023/12/23 07:01:13;;;;;;;4.07;3.63;;;;;;;7.75;100.00;147993.72;6184766;23;20162;-58
2023/12/23 07:03:42;;;;;;;4.77;3.90;;;;;;;7.72;100.00;147987.38;6184268;23;20162;-58
2023/12/23 07:06:12;;;;;;;4.50;4.30;;;;;;;7.77;100.00;147998.75;6184104;23;20182;-57
2023/12/23 07:08:39;;;;;;;4.47;4.27;;;;;;;7.78;100.00;148001.28;6184538;23;20189;-58
2023/12/23 07:11:06;;;;;;;4.53;4.33;;;;;;;7.80;100.00;148007.59;6184202;23;20162;-57
2023/12/23 07:13:34;;;;;;;4.20;3.90;;;;;;;7.90;100.00;148030.28;6184606;23;20601;-58
2023/12/23 07:16:02;;;;;;;4.90;4.70;;;;;;;7.94;100.00;148040.34;6184198;23;20245;-57
2023/12/23 07:18:29;;;;;;;4.43;4.03;;;;;;;8.05;100.00;148069.41;6184144;23;20202;-58
2023/12/23 07:20:56;;;;;;;4.43;4.03;;;;;;;7.96;100.00;148046.69;6184579;23;20216;-57
2023/12/23 07:23:23;;;;;;;5.10;4.50;;;;;;;8.25;100.00;148119.84;6184121;23;20162;-59
2023/12/23 07:25:50;;;;;;;6.53;5.97;;;;;;;8.29;100.00;148128.72;6184020;23;20182;-59
2023/12/23 07:28:18;;;;;;;8.47;7.67;;;;;;;8.32;100.00;148136.28;6184489;23;20162;-58
2023/12/23 07:30:45;;;;;;;10.87;10.03;;;;;;;8.34;100.00;148141.34;6184128;23;20158;-57
2023/12/23 07:33:14;;;;;;;11.23;10.37;;;;;;;8.38;100.00;148151.44;6184312;23;20542;-57
2023/12/23 07:35:41;;;;;;;15.13;9.87;;;;;;;8.47;100.00;148172.91;6184459;23;20598;-58
2023/12/23 07:38:09;;;;;;;25.93;13.80;;;;;;;8.49;100.00;148177.91;6183975;23;20162;-58
2023/12/23 07:40:36;;;;;;;10.33;7.77;;;;;;;8.52;100.00;148185.53;6183982;23;20162;-58
2023/12/23 07:43:04;;;;;;;8.27;3.73;;;;;;;8.66;100.00;148222.09;6183837;23;20159;-58
2023/12/23 07:45:30;;;;;;;2.30;2.10;;;;;;;9.10;100.00;148330.66;6184118;23;20233;-57
2023/12/23 07:47:57;;;;;;;2.67;2.47;;;;;;;9.67;97.39;148472.13;6183786;23;20192;-59
2023/12/23 07:50:25;;;;;;;2.30;2.20;;;;;;;10.19;91.05;148603.53;6184250;23;20213;-58
2023/12/23 07:52:55;;;;;;;11.97;3.40;;;;;;;11.21;84.93;148858.91;6184045;23;20237;-57
2023/12/23 07:55:22;;;;;;;2.20;1.93;;;;;;;11.53;81.49;148937.34;6183801;23;20163;-58
2023/12/23 07:57:49;;;;;;;1.67;1.60;;;;;;;11.24;84.49;148866.53;6183738;23;20162;-59
2023/12/23 08:00:17;;;;;;;5.20;1.77;;;;;;;11.07;87.95;148822.25;6183865;23;20220;-57
2023/12/23 08:02:44;;;;;;;2.30;1.70;;;;;;;10.75;89.56;148743.84;6183767;23;20158;-58
2023/12/23 08:05:11;;;;;;;2.40;2.00;;;;;;;10.64;94.45;148716.03;6183603;23;20265;-57
2023/12/23 08:07:42;;;;;;;4.00;2.33;;;;;;;10.46;97.54;148670.53;6183831;23;20162;-57
2023/12/23 08:10:10;;;;;;;4.50;2.20;;;;;;;10.26;100.00;148621.25;6183716;23;20534;-57
2023/12/23 08:12:37;;;;;;;2.70;2.03;;;;;;;10.28;100.00;148625.00;6183608;23;20570;-58
2023/12/23 08:15:04;;;;;;;3.70;2.47;;;;;;;10.07;100.00;148573.16;6183709;23;20158;-58
2023/12/23 08:17:31;;;;;;;2.93;2.63;;;;;;;9.92;100.00;148536.53;6183627;23;20165;-58
2023/12/23 08:19:58;;;;;;;2.80;2.50;;;;;;;9.92;100.00;148535.28;6183682;23;20159;-58
2023/12/23 08:22:25;;;;;;;2.50;2.40;;;;;;;10.12;100.00;148585.81;6184182;23;20162;-57
2023/12/23 08:24:54;;;;;;;4.63;3.50;;;;;;;10.04;100.00;148566.88;6183452;23;20220;-58
2023/12/23 08:27:21;;;;;;;2.97;2.77;;;;;;;10.12;100.00;148584.53;6183694;23;20163;-57
2023/12/23 08:29:48;;;;;;;4.57;2.57;;;;;;;10.00;100.00;148555.50;6183925;23;20674;-61
2023/12/23 08:32:15;;;;;;;3.67;2.43;;;;;;;9.95;100.00;148542.84;6184029;23;20166;-57
2023/12/23 08:34:45;;;;;;;2.67;2.37;;;;;;;9.87;100.00;148522.63;6183830;23;20159;-57
2023/12/23 08:37:12;;;;;;;2.50;2.40;;;;;;;9.81;100.00;148507.47;6183550;23;20159;-58
2023/12/23 08:39:40;;;;;;;3.07;2.20;;;;;;;9.80;100.00;148504.97;6183966;23;20158;-57
2023/12/23 08:42:08;;;;;;;11.40;1.70;;;;;;;9.63;100.00;148464.50;6184293;23;20475;-58
2023/12/23 08:44:35;;;;;;;2.00;1.80;;;;;;;9.48;100.00;148425.38;6185031;23;20190;-57
2023/12/23 08:47:02;;;;;;;2.50;1.30;;;;;;;9.47;100.00;148424.09;6185806;23;20186;-58
2023/12/23 08:49:29;;;;;;;1.73;1.63;;;;;;;9.52;100.00;148436.72;6185548;23;20169;-58
2023/12/23 08:51:58;;;;;;;1.83;1.37;;;;;;;9.48;100.00;148426.63;6185993;23;20239;-59
2023/12/23 08:54:25;;;;;;;1.40;1.30;;;;;;;9.38;100.00;148401.34;6185511;23;20609;-58
2023/12/23 08:56:52;;;;;;;1.30;1.30;;;;;;;9.41;100.00;148408.97;6185796;23;20212;-57
2023/12/23 08:59:21;;;;;;;5.17;1.60;;;;;;;9.46;100.00;148420.34;6185787;23;20154;-57
2023/12/23 09:01:48;;;;;;;3.03;1.80;;;;;;;9.57;100.00;148449.38;6185753;23;20158;-58
2023/12/23 09:04:16;;;;;;;1.60;1.50;;;;;;;9.61;100.00;148459.47;6185417;23;20162;-59
2023/12/23 09:06:43;;;;;;;1.67;1.57;;;;;;;9.53;100.00;148439.28;6185327;23;20183;-59
2023/12/23 09:09:11;;;;;;;3.17;1.57;;;;;;;9.63;100.00;148464.50;6185724;23;20162;-59
2023/12/23 09:11:42;;;;;;;1.50;1.50;;;;;;;9.70;100.00;148480.94;6185359;23;20194;-58
2023/12/23 09:14:09;;;;;;;2.60;1.87;;;;;;;9.69;100.00;148478.41;6185300;23;20166;-58
2023/12/23 09:16:38;;;;;;;2.10;2.00;;;;;;;9.77;100.00;148498.63;6185315;23;20154;-59
2023/12/23 09:19:05;;;;;;;1.63;1.60;;;;;;;9.72;100.00;148484.75;6185558;23;20158;-58
2023/12/23 09:21:32;;;;;;;1.80;1.70;;;;;;;9.87;100.00;148522.63;6185538;23;20217;-58
2023/12/23 09:23:59;;;;;;;1.80;1.70;;;;;;;9.90;100.00;148531.47;6185180;23;20154;-59
2023/12/23 09:26:26;;;;;;;4.10;2.00;;;;;;;9.89;100.00;148528.94;6185196;23;20646;-58
2023/12/23 09:28:54;;;;;;;3.80;1.87;;;;;;;9.98;100.00;148551.69;6185143;23;20186;-58
2023/12/23 09:31:21;;;;;;;1.00;1.00;;;;;;;10.04;100.00;148566.88;6185204;23;20170;-58
2023/12/23 09:33:49;;;;;;;4.10;1.00;;;;;;;10.13;100.00;148588.34;6185447;23;20212;-58
2023/12/23 09:36:16;;;;;;;1.63;0.83;;;;;;;10.05;100.00;148568.13;6185136;23;20158;-58
2023/12/23 09:38:43;;;;;;;5.40;1.73;;;;;;;10.19;100.00;148603.53;6184866;23;20164;-58
2023/12/23 09:41:11;;;;;;;2.43;1.00;;;;;;;10.09;100.00;148578.25;6185011;23;20567;-58
2023/12/23 09:43:38;;;;;;;9.03;1.30;;;;;;;10.12;100.00;148584.53;6185399;23;20212;-58
2023/12/23 09:46:07;;;;;;;1.10;1.00;;;;;;;10.18;100.00;148601.03;6184856;23;20178;-58
2023/12/23 09:48:34;;;;;;;4.70;1.17;;;;;;;10.20;100.00;148606.06;6185427;23;20594;-59
2023/12/23 09:51:02;;;;;;;5.77;1.40;;;;;;;9.98;100.00;148551.69;6185291;23;20170;-59
2023/12/23 09:53:35;;;;;;;1.70;1.60;;;;;;;10.17;100.00;148598.50;6185181;23;20533;-59
2023/12/23 09:56:02;;;;;;;4.63;0.90;;;;;;;10.09;100.00;148579.50;6184755;23;20170;-58
2023/12/23 09:58:29;;;;;;;14.77;1.80;;;;;;;10.09;100.00;148578.25;6185047;23;20162;-59
2023/12/23 10:00:57;;;;;;;7.40;1.00;;;;;;;10.13;100.00;148588.34;6185277;23;20498;-58
2023/12/23 10:03:24;;;;;;;3.20;1.10;;;;;;;10.13;100.00;148587.06;6184961;23;20162;-58
2023/12/23 10:05:52;;;;;;;3.40;1.00;;;;;;;9.99;100.00;148554.22;6184784;23;20178;-59
2023/12/23 10:08:21;;;;;;;1.63;0.93;;;;;;;10.18;100.00;148601.03;6185333;23;20159;-59
2023/12/23 10:10:48;;;;;;;1.27;1.00;;;;;;;10.21;100.00;148608.59;6184733;23;20221;-59
2023/12/23 10:13:16;;;;;;;10.53;1.57;;;;;;;10.17;100.00;148597.22;6184777;23;20159;-58
2023/12/23 10:15:43;;;;;;;3.67;1.00;;;;;;;10.11;100.00;148583.25;6184639;23;20245;-58
2023/12/23 10:18:12;;;;;;;14.37;2.13;;;;;;;10.17;100.00;148597.22;6185205;23;20636;-58
2023/12/23 10:20:40;;;;;;;9.07;1.17;;;;;;;10.09;100.00;148579.50;6184766;23;20158;-58
2023/12/23 10:23:08;;;;;;;2.93;1.13;;;;;;;10.29;100.00;148627.56;6184716;23;20158;-57
2023/12/23 10:25:38;;;;;;;3.10;1.00;;;;;;;10.24;100.00;148614.91;6184705;23;20158;-58
2023/12/23 10:28:08;;;;;;;4.57;1.33;;;;;;;10.25;100.00;148618.72;6184696;23;20162;-58
2023/12/23 10:30:38;;;;;;;33.83;3.00;;;;;;;10.19;100.00;148603.53;6184840;23;20162;-58
2023/12/23 10:33:07;;;;;;;5.97;1.10;;;;;;;10.08;100.00;148575.69;6184627;23;20166;-60
2023/12/23 10:35:45;;;;;;;2.87;0.93;;;;;;;10.32;100.00;148635.13;6185016;23;20162;-58
2023/12/23 10:38:16;;;;;;;1.17;1.07;;;;;;;10.23;100.00;148612.38;6184593;23;20193;-58
2023/12/23 10:40:49;;;;;;;7.30;1.13;;;;;;;10.26;100.00;148619.97;6184481;23;20159;-58
2023/12/23 10:43:18;;;;;;;2.77;0.90;;;;;;;10.14;100.00;148590.88;6184854;23;20420;-58
2023/12/23 10:45:49;;;;;;;5.20;1.03;;;;;;;10.27;100.00;148622.53;6184321;23;20158;-58
2023/12/23 10:48:17;;;;;;;5.50;1.00;;;;;;;10.25;100.00;148618.72;6184939;23;20162;-58
2023/12/23 10:50:47;;;;;;;1.20;1.10;;;;;;;10.23;100.00;148613.63;6184716;23;20162;-57
2023/12/23 10:53:15;;;;;;;3.27;1.50;;;;;;;10.13;100.00;148588.34;6184280;23;20669;-59
2023/12/23 10:55:42;;;;;;;3.93;1.87;;;;;;;10.37;100.00;148649.03;6184509;23;20162;-58
2023/12/23 10:58:13;;;;;;;2.30;1.60;;;;;;;10.29;100.00;148628.81;6184585;23;20158;-59
2023/12/23 11:00:41;;;;;;;7.10;1.90;;;;;;;10.10;100.00;148582.00;6184758;23;20213;-58
2023/12/23 11:03:09;;;;;;;4.30;1.30;;;;;;;10.21;100.00;148608.59;6184189;23;20227;-58
2023/12/23 11:05:42;;;;;;;6.23;1.47;;;;;;;10.36;100.00;148646.50;6184426;23;20565;-58
2023/12/23 11:08:15;;;;;;;7.73;1.37;;;;;;;10.25;100.00;148618.72;6184141;23;20233;-60
2023/12/23 11:10:44;;;;;;;2.80;1.10;;;;;;;10.22;100.00;148609.88;6184572;23;20621;-58
2023/12/23 11:13:13;;;;;;;1.97;1.10;;;;;;;10.21;100.00;148608.59;6184487;23;20538;-59
2023/12/23 11:15:42;;;;;;;1.40;1.27;;;;;;;10.18;100.00;148601.03;6184140;23;20158;-58
2023/12/23 11:18:10;;;;;;;1.63;0.97;;;;;;;10.12;100.00;148584.53;6184048;23;20162;-58
2023/12/23 11:20:51;;;;;;;1.07;0.93;;;;;;;10.18;100.00;148601.03;6184629;23;20530;-58
2023/12/23 11:23:32;;;;;;;1.20;1.10;;;;;;;10.19;100.00;148603.53;6184149;23;20198;-59
2023/12/23 11:25:59;;;;;;;4.67;0.90;;;;;;;9.94;100.00;148541.56;6184074;23;20240;-59